Time;durP1;ratioP1;P1;durP2;ratioP2;P2;SDS_P1;SDS_P2;PMS_P1;PMS_P2;Temp;Humidity;BMP_temperature;BMP_pressure;BME280_temperature;BME280_humidity;BME280_pressure;Samples;Min_cycle;Max_cycle;Signal;HPM_P1;HPM_P2
2022/12/01 00:05:30;;;;;;;8.50;6.15;;;;;;;20.59;57.40;100970.19;20661806;28;20950;-76
2022/12/01 00:15:34;;;;;;;10.32;6.75;;;;;;;20.56;57.49;100981.78;20650328;28;20053;-76
2022/12/01 00:25:35;;;;;;;8.73;5.93;;;;;;;20.58;57.39;100985.16;20641792;28;20069;-75
2022/12/01 00:35:36;;;;;;;10.48;6.32;;;;;;;20.52;57.34;100984.69;20637463;28;20061;-75
2022/12/01 00:45:37;;;;;;;7.70;5.75;;;;;;;20.47;57.43;100991.09;20644902;28;20033;-77
2022/12/01 00:55:39;;;;;;;8.45;6.07;;;;;;;20.46;57.32;100993.84;20637126;28;20065;-76
2022/12/01 01:05:41;;;;;;;8.13;6.27;;;;;;;20.42;57.62;100994.97;20635418;28;20042;-75
2022/12/01 01:15:42;;;;;;;8.53;5.57;;;;;;;20.39;57.19;100992.56;20635095;28;20047;-75
2022/12/01 01:25:42;;;;;;;8.25;5.55;;;;;;;20.39;57.42;100989.91;20611032;28;20560;-75
2022/12/01 01:35:42;;;;;;;8.10;5.50;;;;;;;20.35;57.21;100993.69;20639631;28;20168;-75
2022/12/01 01:45:43;;;;;;;6.95;5.10;;;;;;;20.33;57.16;100982.44;20630706;28;20050;-75
2022/12/01 01:55:44;;;;;;;6.07;5.05;;;;;;;20.31;57.39;100990.41;20627809;28;20501;-75
2022/12/01 02:05:45;;;;;;;7.97;5.38;;;;;;;20.29;57.00;100979.16;20647321;28;20038;-75
2022/12/01 02:16:08;;;;;;;7.57;5.70;;;;;;;20.26;57.34;100969.69;20649368;28;20056;-76
2022/12/01 02:26:38;;;;;;;6.53;4.75;;;;;;;20.25;56.96;100973.25;20647807;28;20046;-75
2022/12/01 02:36:49;;;;;;;7.13;5.13;;;;;;;20.25;56.72;100981.13;20650848;28;20970;-77
2022/12/01 02:46:54;;;;;;;7.03;5.13;;;;;;;20.24;56.64;100981.25;20652385;28;20116;-75
2022/12/01 02:56:55;;;;;;;7.00;5.20;;;;;;;20.18;56.69;100964.06;20646100;28;20053;-75
2022/12/01 03:07:19;;;;;;;6.30;4.40;;;;;;;20.15;57.12;100969.50;20656236;28;20557;-75
2022/12/01 03:17:28;;;;;;;7.80;4.82;;;;;;;20.14;56.54;100978.31;20667946;28;20042;-76
2022/12/01 03:27:34;;;;;;;7.60;5.13;;;;;;;20.11;56.72;100962.75;20656489;28;20154;-75
2022/12/01 03:37:42;;;;;;;6.55;4.55;;;;;;;20.08;56.35;100955.06;20653639;28;20042;-75
2022/12/01 03:47:43;;;;;;;6.55;4.63;;;;;;;20.09;56.40;100949.72;20651113;28;20841;-75
2022/12/01 03:57:59;;;;;;;6.07;4.80;;;;;;;20.08;56.49;100957.69;20614129;28;20039;-75
2022/12/01 04:08:00;;;;;;;7.32;4.85;;;;;;;20.07;56.37;100951.59;20643834;28;20469;-76
2022/12/01 04:18:00;;;;;;;6.68;4.72;;;;;;;20.09;56.35;100954.97;20645476;28;20073;-74
2022/12/01 04:28:01;;;;;;;6.18;4.32;;;;;;;20.10;56.13;100953.19;20648861;28;20046;-76
2022/12/01 04:38:01;;;;;;;6.85;4.75;;;;;;;20.09;56.29;100946.22;20643533;28;20061;-75
2022/12/01 04:48:02;;;;;;;5.43;4.40;;;;;;;20.09;56.48;100957.59;20645565;28;20046;-75
2022/12/01 04:58:03;;;;;;;6.40;4.10;;;;;;;20.07;56.37;100993.66;20640422;28;20073;-75
2022/12/01 05:08:04;;;;;;;5.50;4.00;;;;;;;20.07;55.94;100966.53;20635926;28;20041;-77
2022/12/01 05:18:06;;;;;;;6.05;4.60;;;;;;;20.22;56.49;100964.72;20616915;28;20120;-77
2022/12/01 05:28:06;;;;;;;8.27;4.90;;;;;;;20.32;56.70;100973.69;20594775;28;20037;-80
2022/12/01 05:38:07;;;;;;;6.28;4.25;;;;;;;20.39;56.13;100966.25;20627879;28;20042;-82
2022/12/01 05:48:08;;;;;;;8.68;4.22;;;;;;;20.47;56.37;100970.06;20621480;28;20060;-82
2022/12/01 05:58:09;;;;;;;5.95;4.55;;;;;;;20.52;55.61;100976.81;20632425;28;20038;-82
2022/12/01 06:08:10;;;;;;;9.02;4.53;;;;;;;20.58;55.59;100989.56;20656403;28;20046;-82
2022/12/01 06:18:10;;;;;;;9.18;5.03;;;;;;;20.50;50.38;100990.06;20662395;28;20126;-81
2022/12/01 06:28:11;;;;;;;9.85;5.25;;;;;;;20.65;55.15;101001.38;20647280;28;20057;-79
2022/12/01 06:38:11;;;;;;;13.73;6.05;;;;;;;20.65;52.71;100993.47;20640877;28;20045;-79
2022/12/01 06:48:11;;;;;;;9.45;5.30;;;;;;;20.72;53.21;100989.53;20649746;28;20038;-79
2022/12/01 06:58:12;;;;;;;9.88;5.50;;;;;;;20.78;52.97;100996.19;20660691;28;20038;-80
2022/12/01 07:08:13;;;;;;;8.75;5.53;;;;;;;20.86;54.21;100987.78;20663115;28;20058;-79
2022/12/01 07:18:13;;;;;;;9.68;5.43;;;;;;;20.92;54.86;100996.13;20680681;28;20046;-83
2022/12/01 07:28:13;;;;;;;9.60;5.15;;;;;;;20.98;54.75;100997.47;20686127;28;20038;-81
2022/12/01 07:38:15;;;;;;;7.47;5.18;;;;;;;21.03;54.21;101000.66;20680622;28;20512;-80
2022/12/01 07:48:15;;;;;;;8.13;5.10;;;;;;;21.10;54.11;101003.72;20672293;28;20034;-81
2022/12/01 07:58:17;;;;;;;8.15;5.00;;;;;;;21.15;53.85;101011.31;20675015;28;20445;-83
2022/12/01 08:08:19;;;;;;;8.55;5.40;;;;;;;21.17;53.17;101009.44;20689023;28;20890;-83
2022/12/01 08:18:20;;;;;;;10.03;5.40;;;;;;;21.25;54.04;101005.31;20676456;28;20143;-82
2022/12/01 08:28:20;;;;;;;7.85;5.45;;;;;;;21.31;54.14;100998.78;20676506;28;20037;-80
2022/12/01 08:38:21;;;;;;;7.30;5.70;;;;;;;21.37;54.48;101016.81;20666017;28;20124;-81
2022/12/01 08:48:22;;;;;;;9.00;5.38;;;;;;;21.36;53.59;101011.63;20650664;28;20049;-84
2022/12/01 08:58:22;;;;;;;10.07;5.60;;;;;;;21.45;53.39;101008.38;20672754;28;20056;-85
2022/12/01 09:08:31;;;;;;;7.55;5.13;;;;;;;21.49;53.63;101007.22;20664357;28;21792;-86
2022/12/01 09:18:33;;;;;;;7.18;5.03;;;;;;;21.54;53.83;101001.63;20669200;28;20069;-86
2022/12/01 09:28:34;;;;;;;8.95;5.70;;;;;;;21.58;53.39;100993.44;20673055;28;20042;-85
2022/12/01 09:38:36;;;;;;;7.60;5.20;;;;;;;21.61;53.46;100991.56;20665696;28;20539;-85
2022/12/01 09:48:42;;;;;;;8.15;5.15;;;;;;;21.62;53.04;100986.16;20648489;28;20046;-86
2022/12/01 09:58:42;;;;;;;7.93;5.10;;;;;;;21.60;52.81;100974.88;20685186;28;20160;-83
2022/12/01 10:08:59;;;;;;;7.47;5.30;;;;;;;21.61;51.98;100965.22;20634725;28;20039;-85
2022/12/01 10:19:11;;;;;;;7.30;5.25;;;;;;;21.61;53.01;100959.94;20633613;28;20292;-85
2022/12/01 10:29:26;;;;;;;10.60;5.80;;;;;;;21.65;52.70;100948.22;20666018;28;20037;-83
2022/12/01 10:39:35;;;;;;;9.75;5.60;;;;;;;21.68;53.01;100943.56;20664533;28;20085;-82
2022/12/01 10:49:38;;;;;;;10.85;5.50;;;;;;;21.75;52.97;100942.19;20663225;28;20464;-81
2022/12/01 10:59:44;;;;;;;8.73;6.25;;;;;;;21.82;52.51;100939.09;20668715;28;20410;-82
2022/12/01 11:10:01;;;;;;;8.05;6.13;;;;;;;21.86;52.66;100916.84;20619195;28;20079;-80
2022/12/01 11:20:35;;;;;;;9.50;5.78;;;;;;;21.90;52.18;100902.50;20660825;28;21004;-81
2022/12/01 11:30:36;;;;;;;8.00;5.80;;;;;;;21.97;52.44;100897.59;20668864;28;20052;-82
2022/12/01 11:40:49;;;;;;;8.02;6.10;;;;;;;22.03;52.49;100891.88;20654186;28;20057;-84
2022/12/01 11:51:25;;;;;;;7.80;5.90;;;;;;;22.12;52.23;100893.00;20662689;28;20060;-82
2022/12/01 12:01:46;;;;;;;10.90;6.30;;;;;;;22.18;52.15;100888.13;20655765;28;20161;-80
2022/12/01 12:12:20;;;;;;;9.05;6.07;;;;;;;22.22;52.28;100880.84;20654432;28;20067;-80
2022/12/01 12:22:48;;;;;;;9.10;6.57;;;;;;;22.20;51.84;100873.03;20596123;28;20053;-86
2022/12/01 12:33:19;;;;;;;10.93;6.03;;;;;;;22.20;51.84;100872.19;20654560;28;20133;-86
2022/12/01 12:43:57;;;;;;;7.82;6.03;;;;;;;22.23;51.55;100877.25;20638822;28;20104;-80
2022/12/01 12:54:32;;;;;;;10.68;5.85;;;;;;;22.21;51.48;100871.22;20636094;28;20042;-82
2022/12/01 13:04:40;;;;;;;8.10;5.82;;;;;;;22.19;51.22;100874.00;20642069;28;20042;-81
2022/12/01 13:14:55;;;;;;;22.35;6.07;;;;;;;22.11;50.42;100865.78;20631425;28;20509;-82
2022/12/01 13:24:56;;;;;;;15.43;6.22;;;;;;;22.08;50.86;100871.28;20606562;28;20169;-86
2022/12/01 13:34:59;;;;;;;11.75;6.22;;;;;;;21.98;50.92;100873.75;20634215;28;20038;-85
2022/12/01 13:45:09;;;;;;;14.10;5.60;;;;;;;21.86;51.18;100872.88;20641910;28;20034;-81
2022/12/01 13:55:09;;;;;;;12.45;5.53;;;;;;;21.79;51.29;100868.13;20652243;28;20049;-82
2022/12/01 14:05:38;;;;;;;9.98;5.63;;;;;;;21.72;51.23;100873.03;20673264;28;20046;-82
2022/12/01 14:15:41;;;;;;;8.32;5.63;;;;;;;21.67;51.40;100869.88;20685916;28;20497;-84
2022/12/01 14:26:00;;;;;;;7.00;5.03;;;;;;;21.66;50.73;100862.94;20672441;28;20084;-87
2022/12/01 14:36:02;;;;;;;8.25;5.15;;;;;;;21.65;50.67;100864.72;20645178;28;20050;-85
2022/12/01 14:46:09;;;;;;;6.72;4.70;;;;;;;21.61;51.30;100865.06;20660670;28;20054;-87
2022/12/01 14:56:16;;;;;;;7.35;4.47;;;;;;;21.53;51.25;100866.41;20670608;28;20081;-85
2022/12/01 15:06:19;;;;;;;7.20;4.85;;;;;;;21.50;50.86;100876.34;20670741;28;20077;-84
2022/12/01 15:16:21;;;;;;;;;;;;;;;21.36;50.50;100872.03;20649675;28;20054;-82
2022/12/01 15:26:27;;;;;;;9.57;4.45;;;;;;;21.36;50.91;100872.03;20669000;28;19929;-82
2022/12/01 15:36:33;;;;;;;11.30;5.03;;;;;;;21.43;50.79;100871.50;20652809;28;20041;-82
2022/12/01 15:46:34;;;;;;;6.38;4.47;;;;;;;21.42;51.29;100874.22;20663246;28;20115;-81
2022/12/01 16:07:02;;;;;;;6.38;4.25;;;;;;;21.44;51.69;100878.44;20656747;28;20049;-82
2022/12/01 16:17:07;;;;;;;8.10;4.53;;;;;;;21.39;51.12;100867.38;20645354;28;20042;-81
2022/12/01 16:27:27;;;;;;;6.80;4.03;;;;;;;21.33;51.78;100880.16;20645908;28;20593;-83
2022/12/01 16:37:27;;;;;;;11.52;4.63;;;;;;;21.30;51.31;100886.50;20650937;28;20131;-84
2022/12/01 16:47:30;;;;;;;6.00;4.22;;;;;;;21.27;51.51;100881.41;20650586;28;20420;-83
2022/12/01 16:57:30;;;;;;;;;;;;;;;21.16;51.44;100876.91;20634318;28;20057;-82
2022/12/01 17:07:31;;;;;;;6.10;4.30;;;;;;;21.09;51.81;100889.66;20642611;28;19926;-82
2022/12/01 17:17:31;;;;;;;6.90;3.88;;;;;;;21.00;51.29;100884.19;20619786;28;20046;-81
2022/12/01 17:27:32;;;;;;;6.25;4.15;;;;;;;21.00;51.34;100890.28;20649406;28;20137;-82
2022/12/01 17:37:32;;;;;;;10.68;5.60;;;;;;;21.08;51.75;100900.28;20631542;28;20099;-82
2022/12/01 17:47:33;;;;;;;16.23;4.35;;;;;;;21.10;52.63;100906.28;20636837;28;20142;-80
2022/12/01 17:57:34;;;;;;;8.57;5.20;;;;;;;21.05;52.86;100893.44;20623129;28;20046;-85
2022/12/01 18:07:35;;;;;;;27.75;10.13;;;;;;;21.08;53.62;100903.78;20625643;28;20058;-84
2022/12/01 18:17:36;;;;;;;35.47;13.23;;;;;;;21.10;53.42;100909.78;20599574;28;20050;-84
2022/12/01 18:27:37;;;;;;;35.22;12.93;;;;;;;21.02;53.32;100900.69;20621928;28;20033;-87
2022/12/01 18:37:39;;;;;;;26.73;11.57;;;;;;;21.04;53.48;100902.28;20638163;28;20441;-83
2022/12/01 18:47:39;;;;;;;28.30;11.27;;;;;;;21.00;54.02;100906.06;20650124;28;20291;-83
2022/12/01 18:57:39;;;;;;;33.28;10.63;;;;;;;21.01;54.47;100906.94;20585216;28;20046;-81
2022/12/01 19:07:40;;;;;;;24.38;9.50;;;;;;;20.96;54.29;100901.97;20651904;28;20052;-84
2022/12/01 19:17:40;;;;;;;20.35;9.30;;;;;;;20.93;53.89;100912.72;20655662;28;20053;-81
2022/12/01 19:27:41;;;;;;;23.77;8.73;;;;;;;20.86;54.20;100925.47;20649803;28;20065;-83
2022/12/01 19:37:41;;;;;;;22.35;9.68;;;;;;;20.77;53.47;100919.00;20646116;28;20054;-83
2022/12/01 19:47:41;;;;;;;24.08;12.10;;;;;;;20.72;52.02;100915.00;20646178;28;20049;-84
2022/12/01 19:57:42;;;;;;;23.27;10.93;;;;;;;20.68;52.34;100927.50;20660032;28;20441;-82
2022/12/01 20:07:42;;;;;;;23.40;10.65;;;;;;;20.67;52.75;100923.19;20653648;28;20049;-80
2022/12/01 20:17:42;;;;;;;20.40;10.45;;;;;;;20.67;52.88;100931.06;20665830;28;20048;-82
2022/12/01 20:27:44;;;;;;;17.90;10.35;;;;;;;20.65;53.56;100927.69;20680222;28;20048;-83
2022/12/01 20:37:44;;;;;;;18.50;10.13;;;;;;;20.69;53.40;100937.09;20676650;28;20054;-79
2022/12/01 20:47:46;;;;;;;23.70;11.00;;;;;;;20.68;53.85;100947.69;20647643;28;20046;-81
2022/12/01 20:57:46;;;;;;;17.88;10.05;;;;;;;20.67;53.73;100951.28;20667132;28;20053;-82
2022/12/01 21:07:47;;;;;;;18.02;10.35;;;;;;;20.63;53.72;100958.53;20666453;28;20038;-81
2022/12/01 21:17:55;;;;;;;19.73;10.90;;;;;;;20.62;53.65;100968.22;20629643;28;20060;-81
2022/12/01 21:28:02;;;;;;;16.02;9.45;;;;;;;20.61;53.74;100969.16;20666177;28;20132;-82
2022/12/01 21:38:09;;;;;;;19.27;9.75;;;;;;;20.60;53.85;100971.88;20635702;28;20045;-79
2022/12/01 21:48:17;;;;;;;17.50;9.35;;;;;;;20.62;53.92;100959.47;20659971;28;20056;-80
2022/12/01 21:58:29;;;;;;;15.13;9.15;;;;;;;20.61;53.61;100978.84;20655911;28;20056;-80
2022/12/01 22:08:39;;;;;;;13.05;8.57;;;;;;;20.57;54.19;100977.38;20654362;28;20057;-80
2022/12/01 22:18:43;;;;;;;15.35;8.85;;;;;;;20.57;53.98;100977.38;20654966;28;20042;-80
2022/12/01 22:28:44;;;;;;;12.70;7.78;;;;;;;20.55;54.08;100977.44;20675579;28;20045;-80
2022/12/01 22:38:44;;;;;;;12.55;8.43;;;;;;;20.49;54.42;100962.06;20676688;28;20057;-80
2022/12/01 22:49:05;;;;;;;14.23;8.38;;;;;;;20.48;54.26;100955.97;20691444;28;20153;-80
2022/12/01 22:59:18;;;;;;;12.38;8.02;;;;;;;20.48;54.08;100952.47;20668727;28;20136;-80
2022/12/01 23:09:22;;;;;;;12.38;7.63;;;;;;;20.46;54.00;100954.38;20675317;28;20163;-78
2022/12/01 23:19:24;;;;;;;12.27;8.48;;;;;;;20.41;54.02;100951.19;20679829;28;20054;-80
2022/12/01 23:29:24;;;;;;;13.52;8.38;;;;;;;20.39;54.34;100955.72;20686946;28;20043;-81
2022/12/01 23:39:30;;;;;;;13.45;8.38;;;;;;;20.38;54.01;100962.75;20673930;28;20505;-78
2022/12/01 23:49:34;;;;;;;10.20;7.47;;;;;;;20.38;53.97;100967.19;20677814;28;20042;-78
2022/12/01 23:59:38;;;;;;;12.68;7.03;;;;;;;20.37;53.99;100970.75;20650052;28;20046;-79
